createdAt,value
2018-04-23T00:05:31.147Z,20.3
2018-04-23T00:15:30.595Z,20.3
2018-04-23T00:25:29.827Z,20.3
2018-04-23T00:35:28.630Z,20.2
2018-04-23T00:45:27.899Z,20.1
2018-04-23T00:55:27.159Z,20.1
2018-04-23T01:05:26.733Z,20
2018-04-23T01:15:25.553Z,19.9
2018-04-23T01:25:24.984Z,19.9
2018-04-23T01:35:24.544Z,19.8
2018-04-23T01:45:23.589Z,19.8
2018-04-23T01:55:22.741Z,19.7
2018-04-23T02:05:21.662Z,19.6
2018-04-23T02:15:20.801Z,19.6
2018-04-23T02:25:20.303Z,19.5
2018-04-23T02:35:19.584Z,19.4
2018-04-23T02:45:19.134Z,19.4
2018-04-23T02:55:17.940Z,19.3
2018-04-23T03:05:16.917Z,19.3
2018-04-23T03:15:16.347Z,19.4
2018-04-23T03:25:16.123Z,19.6
2018-04-23T03:35:14.613Z,19.8
2018-04-23T03:45:14.068Z,19.9
2018-04-23T03:55:13.640Z,19.8
2018-04-23T04:05:12.859Z,19.7
2018-04-23T04:15:11.618Z,19.6
2018-04-23T04:25:11.093Z,19.5
2018-04-23T04:35:10.050Z,19.6
2018-04-23T04:45:09.006Z,19.8
2018-04-23T04:55:08.178Z,20
2018-04-23T05:05:07.667Z,20.3
2018-04-23T05:15:06.680Z,20.5
2018-04-23T05:25:06.087Z,20.1
2018-04-23T05:35:05.123Z,20
2018-04-23T05:45:04.845Z,20.2
2018-04-23T05:55:04.983Z,20.1
2018-04-23T06:05:02.714Z,20.1
2018-04-23T06:15:02.691Z,20.5
2018-04-23T06:25:01.241Z,21.2
2018-04-23T06:35:00.308Z,21.8
2018-04-23T06:44:59.764Z,21.6
2018-04-23T06:54:58.787Z,21.8
2018-04-23T07:04:58.068Z,22.3
2018-04-23T07:14:57.402Z,22.4
2018-04-23T07:24:56.880Z,22.7
2018-04-23T07:34:55.857Z,22.9
2018-04-23T07:44:54.809Z,23.3
2018-04-23T07:54:53.966Z,23.4
2018-04-23T08:04:53.459Z,24
2018-04-23T08:14:52.710Z,23.9
2018-04-23T08:24:51.614Z,23.7
2018-04-23T08:34:51.408Z,23.8
2018-04-23T08:44:50.351Z,23.9
2018-04-23T08:54:49.236Z,24
2018-04-23T09:04:48.397Z,24.6
2018-04-23T09:14:47.652Z,25.1
2018-04-23T09:24:47.228Z,25
2018-04-23T09:34:46.134Z,24.8
2018-04-23T09:44:45.723Z,25.6
2018-04-23T09:54:44.566Z,25.8
2018-04-23T10:04:43.743Z,25.3
2018-04-23T10:14:43.337Z,24.9
2018-04-23T10:24:42.695Z,24.8
2018-04-23T10:34:41.681Z,24.8
2018-04-23T10:44:40.795Z,24.7
2018-04-23T10:54:39.877Z,24.6
2018-04-23T11:04:39.319Z,24.6
2018-04-23T11:14:38.791Z,24.6
2018-04-23T11:24:37.775Z,24.6
2018-04-23T11:34:36.959Z,24.5
2018-04-23T11:44:35.872Z,24.5
2018-04-23T11:54:35.107Z,24.4
2018-04-23T12:04:35.004Z,24.4
2018-04-23T12:14:33.755Z,24.4
2018-04-23T12:24:33.334Z,24.4
2018-04-23T12:34:32.274Z,24.4
2018-04-23T12:44:31.360Z,24.4
2018-04-23T12:54:31.204Z,24.3
2018-04-23T13:04:29.602Z,24.6
2018-04-23T13:14:29.036Z,24.6
2018-04-23T13:24:27.974Z,24.5
2018-04-23T13:34:27.475Z,24.6
2018-04-23T13:44:26.458Z,24.4
2018-04-23T13:54:26.560Z,24.4
2018-04-23T14:04:25.164Z,24.4
2018-04-23T14:14:24.401Z,24.4
2018-04-23T14:24:23.361Z,24.4
2018-04-23T14:34:22.820Z,24.3
2018-04-23T14:44:22.043Z,24.3
2018-04-23T14:54:20.892Z,24.2
2018-04-23T15:04:20.036Z,24.2
2018-04-23T15:14:19.898Z,24.3
2018-04-23T15:24:18.551Z,24.6
2018-04-23T15:34:18.029Z,24.6
2018-04-23T15:44:17.497Z,24.5
2018-04-23T15:54:16.142Z,24.4
2018-04-23T16:04:15.639Z,24.4
2018-04-23T16:14:15.151Z,24.4
2018-04-23T16:24:14.121Z,24.1
2018-04-23T16:34:13.395Z,23.9
2018-04-23T16:44:12.209Z,23.7
2018-04-23T16:54:12.302Z,23.6
2018-04-23T17:04:10.946Z,23.4
2018-04-23T17:14:10.228Z,23.3
2018-04-23T17:24:09.645Z,23
2018-04-23T17:34:08.313Z,22.8
2018-04-23T17:44:07.557Z,22.6
2018-04-23T17:54:07.583Z,22.1
2018-04-23T18:04:06.817Z,21.4
2018-04-23T18:14:05.171Z,21.3
2018-04-23T18:24:04.455Z,20.6
2018-04-23T18:34:04.709Z,20.1
2018-04-23T18:44:02.918Z,20.4
2018-04-23T18:54:02.393Z,20.3
2018-04-23T19:04:01.309Z,20.3
2018-04-23T19:14:00.445Z,20.5
2018-04-23T19:23:59.905Z,20.8
2018-04-23T19:33:58.964Z,20.2
2018-04-23T19:43:58.360Z,20.4
2018-04-23T19:53:57.339Z,20.7
2018-04-23T20:03:56.470Z,21
2018-04-23T20:13:56.060Z,21.6
2018-04-23T20:23:55.336Z,21.9
2018-04-23T20:33:54.179Z,22
2018-04-23T20:43:53.940Z,22.1
2018-04-23T20:53:52.536Z,22.1
2018-04-23T21:03:52.043Z,22.1
2018-04-23T21:13:51.302Z,22
2018-04-23T21:23:50.231Z,22
2018-04-23T21:33:49.743Z,21.9
2018-04-23T21:43:48.900Z,21.9
2018-04-23T21:53:47.931Z,21.8
2018-04-23T22:03:47.118Z,21.8
2018-04-23T22:13:46.564Z,21.8
2018-04-23T22:23:45.980Z,21.7
2018-04-23T22:33:44.833Z,21.6
2018-04-23T22:43:43.890Z,21.6
2018-04-23T22:53:43.467Z,21.5
2018-04-23T23:03:42.417Z,21.4
2018-04-23T23:13:41.916Z,21.4
2018-04-23T23:23:41.063Z,21.3
2018-04-23T23:33:40.012Z,21.3
2018-04-23T23:43:39.169Z,21.3
2018-04-23T23:53:38.977Z,21.2
